sensor_id;sensor_type;location;lat;lon;timestamp;pressure;altitude;pressure_sealevel;temperature;humidity
60489;BME280;46331;49.252;8.904;2023-02-26T00:00:25;99386.56;;;-1.15;73.52
60489;BME280;46331;49.252;8.904;2023-02-26T00:01:17;99389.00;;;-1.13;73.80
60489;BME280;46331;49.252;8.904;2023-02-26T00:01:58;99382.00;;;-1.13;74.00
60489;BME280;46331;49.252;8.904;2023-02-26T00:02:42;99383.31;;;-1.17;74.24
60489;BME280;46331;49.252;8.904;2023-02-26T00:03:25;99386.84;;;-1.10;73.81
60489;BME280;46331;49.252;8.904;2023-02-26T00:04:06;99382.81;;;-1.12;74.08
60489;BME280;46331;49.252;8.904;2023-02-26T00:04:47;99384.59;;;-1.13;73.96
60489;BME280;46331;49.252;8.904;2023-02-26T00:05:28;99380.84;;;-1.10;74.37
60489;BME280;46331;49.252;8.904;2023-02-26T00:06:08;99384.91;;;-1.08;74.14
60489;BME280;46331;49.252;8.904;2023-02-26T00:06:49;99388.94;;;-1.05;74.14
60489;BME280;46331;49.252;8.904;2023-02-26T00:07:33;99383.75;;;-1.05;74.38
60489;BME280;46331;49.252;8.904;2023-02-26T00:08:14;99388.16;;;-1.05;74.01
60489;BME280;46331;49.252;8.904;2023-02-26T00:08:54;99382.47;;;-1.09;74.49
60489;BME280;46331;49.252;8.904;2023-02-26T00:09:35;99378.75;;;-1.15;74.16
60489;BME280;46331;49.252;8.904;2023-02-26T00:10:16;99382.50;;;-1.17;74.46
60489;BME280;46331;49.252;8.904;2023-02-26T00:10:57;99376.94;;;-1.14;74.32
60489;BME280;46331;49.252;8.904;2023-02-26T00:11:38;99378.25;;;-1.10;74.62
60489;BME280;46331;49.252;8.904;2023-02-26T00:12:18;99387.84;;;-1.11;74.38
60489;BME280;46331;49.252;8.904;2023-02-26T00:12:59;99384.75;;;-1.14;74.43
60489;BME280;46331;49.252;8.904;2023-02-26T00:13:42;99384.94;;;-1.16;74.11
60489;BME280;46331;49.252;8.904;2023-02-26T00:14:23;99379.44;;;-1.21;73.93
60489;BME280;46331;49.252;8.904;2023-02-26T00:15:05;99384.00;;;-1.23;74.03
60489;BME280;46331;49.252;8.904;2023-02-26T00:15:47;99384.69;;;-1.29;75.08
60489;BME280;46331;49.252;8.904;2023-02-26T00:16:34;99382.72;;;-1.27;75.41
60489;BME280;46331;49.252;8.904;2023-02-26T00:18:28;99386.94;;;-1.26;75.58
60489;BME280;46331;49.252;8.904;2023-02-26T00:19:10;99387.56;;;-1.24;75.03
60489;BME280;46331;49.252;8.904;2023-02-26T00:19:51;99390.34;;;-1.26;74.71
60489;BME280;46331;49.252;8.904;2023-02-26T00:20:32;99388.88;;;-1.28;74.77
60489;BME280;46331;49.252;8.904;2023-02-26T00:21:21;99387.63;;;-1.32;74.56
60489;BME280;46331;49.252;8.904;2023-02-26T00:22:02;99386.31;;;-1.36;74.47
60489;BME280;46331;49.252;8.904;2023-02-26T00:22:43;99383.25;;;-1.40;74.88
60489;BME280;46331;49.252;8.904;2023-02-26T00:23:24;99388.78;;;-1.43;74.92
60489;BME280;46331;49.252;8.904;2023-02-26T00:24:04;99390.09;;;-1.47;75.45
60489;BME280;46331;49.252;8.904;2023-02-26T00:24:45;99385.84;;;-1.48;76.09
60489;BME280;46331;49.252;8.904;2023-02-26T00:25:26;99386.69;;;-1.48;76.27
60489;BME280;46331;49.252;8.904;2023-02-26T00:26:08;99388.28;;;-1.47;76.21
60489;BME280;46331;49.252;8.904;2023-02-26T00:26:49;99387.97;;;-1.44;76.12
60489;BME280;46331;49.252;8.904;2023-02-26T00:27:29;99386.81;;;-1.41;75.91
60489;BME280;46331;49.252;8.904;2023-02-26T00:28:11;99387.63;;;-1.40;75.07
60489;BME280;46331;49.252;8.904;2023-02-26T00:28:52;99387.97;;;-1.44;74.92
60489;BME280;46331;49.252;8.904;2023-02-26T00:29:33;99394.50;;;-1.48;74.65
60489;BME280;46331;49.252;8.904;2023-02-26T00:30:14;99388.00;;;-1.52;74.26
60489;BME280;46331;49.252;8.904;2023-02-26T00:30:55;99387.69;;;-1.57;74.74
60489;BME280;46331;49.252;8.904;2023-02-26T00:31:36;99386.56;;;-1.63;75.36
60489;BME280;46331;49.252;8.904;2023-02-26T00:32:17;99395.19;;;-1.70;75.57
60489;BME280;46331;49.252;8.904;2023-02-26T00:32:58;99394.69;;;-1.66;75.83
60489;BME280;46331;49.252;8.904;2023-02-26T00:33:39;99393.38;;;-1.62;75.73
60489;BME280;46331;49.252;8.904;2023-02-26T00:34:20;99393.38;;;-1.62;75.90
60489;BME280;46331;49.252;8.904;2023-02-26T00:35:01;99396.78;;;-1.61;75.37
60489;BME280;46331;49.252;8.904;2023-02-26T00:35:41;99390.13;;;-1.64;75.65
60489;BME280;46331;49.252;8.904;2023-02-26T00:38:26;99395.81;;;-1.68;76.77
60489;BME280;46331;49.252;8.904;2023-02-26T00:39:27;99397.78;;;-1.70;77.16
60489;BME280;46331;49.252;8.904;2023-02-26T00:40:58;99405.59;;;-1.70;76.94
60489;BME280;46331;49.252;8.904;2023-02-26T00:41:39;99399.91;;;-1.74;76.39
60489;BME280;46331;49.252;8.904;2023-02-26T00:42:20;99394.22;;;-1.77;76.05
60489;BME280;46331;49.252;8.904;2023-02-26T00:43:05;99396.50;;;-1.83;75.60
60489;BME280;46331;49.252;8.904;2023-02-26T00:43:46;99403.00;;;-1.87;75.46
60489;BME280;46331;49.252;8.904;2023-02-26T00:44:27;99393.94;;;-1.91;75.61
60489;BME280;46331;49.252;8.904;2023-02-26T00:45:09;99405.94;;;-1.98;76.46
60489;BME280;46331;49.252;8.904;2023-02-26T00:46:47;99395.06;;;-2.10;76.14
60489;BME280;46331;49.252;8.904;2023-02-26T00:48:21;99395.88;;;-2.18;76.98
60489;BME280;46331;49.252;8.904;2023-02-26T00:49:12;99397.84;;;-2.28;77.18
60489;BME280;46331;49.252;8.904;2023-02-26T00:50:05;99400.09;;;-2.33;77.32
60489;BME280;46331;49.252;8.904;2023-02-26T00:51:01;99404.63;;;-2.35;77.24
60489;BME280;46331;49.252;8.904;2023-02-26T00:51:52;99399.94;;;-2.40;78.00
60489;BME280;46331;49.252;8.904;2023-02-26T00:52:58;99404.47;;;-2.42;77.19
60489;BME280;46331;49.252;8.904;2023-02-26T00:53:46;99400.41;;;-2.44;78.04
60489;BME280;46331;49.252;8.904;2023-02-26T00:54:29;99409.16;;;-2.45;78.08
60489;BME280;46331;49.252;8.904;2023-02-26T00:55:10;99407.56;;;-2.46;78.59
60489;BME280;46331;49.252;8.904;2023-02-26T00:55:51;99407.56;;;-2.46;78.55
60489;BME280;46331;49.252;8.904;2023-02-26T00:56:31;99402.53;;;-2.48;78.78
60489;BME280;46331;49.252;8.904;2023-02-26T00:57:12;99407.56;;;-2.46;78.97
60489;BME280;46331;49.252;8.904;2023-02-26T00:57:53;99409.31;;;-2.47;79.08
60489;BME280;46331;49.252;8.904;2023-02-26T00:58:33;99405.94;;;-2.47;78.73
60489;BME280;46331;49.252;8.904;2023-02-26T00:59:16;99400.25;;;-2.51;78.63
60489;BME280;46331;49.252;8.904;2023-02-26T00:59:57;99397.81;;;-2.53;78.95
60489;BME280;46331;49.252;8.904;2023-02-26T01:00:38;99401.06;;;-2.50;79.24
60489;BME280;46331;49.252;8.904;2023-02-26T01:01:18;99404.59;;;-2.52;79.00
60489;BME280;46331;49.252;8.904;2023-02-26T01:01:59;99395.06;;;-2.51;79.27
60489;BME280;46331;49.252;8.904;2023-02-26T01:02:40;99409.81;;;-2.52;79.29
60489;BME280;46331;49.252;8.904;2023-02-26T01:03:21;99401.22;;;-2.52;79.95
60489;BME280;46331;49.252;8.904;2023-02-26T01:04:02;99403.97;;;-2.54;79.92
60489;BME280;46331;49.252;8.904;2023-02-26T01:04:43;99407.38;;;-2.53;79.55
60489;BME280;46331;49.252;8.904;2023-02-26T01:05:25;99403.16;;;-2.54;79.85
60489;BME280;46331;49.252;8.904;2023-02-26T01:06:10;99404.13;;;-2.55;79.70
60489;BME280;46331;49.252;8.904;2023-02-26T01:06:54;99407.69;;;-2.56;80.20
60489;BME280;46331;49.252;8.904;2023-02-26T01:07:46;99408.00;;;-2.59;80.46
60489;BME280;46331;49.252;8.904;2023-02-26T01:09:47;99405.09;;;-2.56;80.35
60489;BME280;46331;49.252;8.904;2023-02-26T01:10:28;99407.69;;;-2.56;80.52
60489;BME280;46331;49.252;8.904;2023-02-26T01:11:09;99403.97;;;-2.62;80.57
60489;BME280;46331;49.252;8.904;2023-02-26T01:11:50;99397.63;;;-2.59;81.00
60489;BME280;46331;49.252;8.904;2023-02-26T01:12:31;99399.91;;;-2.56;80.75
60489;BME280;46331;49.252;8.904;2023-02-26T01:13:12;99405.75;;;-2.54;80.74
60489;BME280;46331;49.252;8.904;2023-02-26T01:13:53;99401.69;;;-2.57;80.98
60489;BME280;46331;49.252;8.904;2023-02-26T01:14:34;99395.69;;;-2.57;80.76
60489;BME280;46331;49.252;8.904;2023-02-26T01:15:15;99399.41;;;-2.60;80.26
60489;BME280;46331;49.252;8.904;2023-02-26T01:16:02;99402.31;;;-2.63;80.36
60489;BME280;46331;49.252;8.904;2023-02-26T01:17:17;99398.56;;;-2.68;79.80
60489;BME280;46331;49.252;8.904;2023-02-26T01:19:19;99390.78;;;-2.77;79.89
60489;BME280;46331;49.252;8.904;2023-02-26T01:20:15;99397.56;;;-2.76;81.09
60489;BME280;46331;49.252;8.904;2023-02-26T01:21:02;99401.97;;;-2.76;80.75
60489;BME280;46331;49.252;8.904;2023-02-26T01:21:49;99392.69;;;-2.79;80.67
60489;BME280;46331;49.252;8.904;2023-02-26T01:22:43;99395.31;;;-2.79;81.12
60489;BME280;46331;49.252;8.904;2023-02-26T01:23:26;99397.41;;;-2.74;81.18
60489;BME280;46331;49.252;8.904;2023-02-26T01:24:13;99391.91;;;-2.71;81.91
60489;BME280;46331;49.252;8.904;2023-02-26T01:25:04;99390.47;;;-2.65;81.50
60489;BME280;46331;49.252;8.904;2023-02-26T01:25:59;99397.13;;;-2.63;81.21
60489;BME280;46331;49.252;8.904;2023-02-26T01:26:42;99392.25;;;-2.66;80.43
60489;BME280;46331;49.252;8.904;2023-02-26T01:27:22;99394.19;;;-2.68;80.24
60489;BME280;46331;49.252;8.904;2023-02-26T01:28:03;99398.56;;;-2.68;80.63
60489;BME280;46331;49.252;8.904;2023-02-26T01:28:44;99392.44;;;-2.67;80.13
60489;BME280;46331;49.252;8.904;2023-02-26T01:29:25;99392.59;;;-2.69;80.05
60489;BME280;46331;49.252;8.904;2023-02-26T01:30:07;99400.38;;;-2.69;80.04
60489;BME280;46331;49.252;8.904;2023-02-26T01:30:49;99390.94;;;-2.70;79.64
60489;BME280;46331;49.252;8.904;2023-02-26T01:31:40;99396.94;;;-2.70;79.74
60489;BME280;46331;49.252;8.904;2023-02-26T01:33:46;99399.69;;;-2.71;79.40
60489;BME280;46331;49.252;8.904;2023-02-26T01:34:40;99400.06;;;-2.66;80.24
60489;BME280;46331;49.252;8.904;2023-02-26T01:35:57;99399.72;;;-2.63;79.94
60489;BME280;46331;49.252;8.904;2023-02-26T01:36:51;99400.72;;;-2.56;79.41
60489;BME280;46331;49.252;8.904;2023-02-26T01:38:00;99404.94;;;-2.55;79.53
60489;BME280;46331;49.252;8.904;2023-02-26T01:42:12;99395.88;;;-2.34;78.84
60489;BME280;46331;49.252;8.904;2023-02-26T01:42:58;99405.13;;;-2.31;78.47
60489;BME280;46331;49.252;8.904;2023-02-26T01:44:34;99395.88;;;-2.26;77.65
60489;BME280;46331;49.252;8.904;2023-02-26T01:45:28;99392.81;;;-2.29;77.35
60489;BME280;46331;49.252;8.904;2023-02-26T01:46:31;99396.19;;;-2.29;77.57
60489;BME280;46331;49.252;8.904;2023-02-26T01:47:20;99402.34;;;-2.30;77.30
60489;BME280;46331;49.252;8.904;2023-02-26T01:48:10;99406.91;;;-2.32;77.02
60489;BME280;46331;49.252;8.904;2023-02-26T01:48:56;99398.47;;;-2.34;77.22
60489;BME280;46331;49.252;8.904;2023-02-26T01:49:38;99393.44;;;-2.36;76.70
60489;BME280;46331;49.252;8.904;2023-02-26T01:50:22;99398.31;;;-2.32;77.02
60489;BME280;46331;49.252;8.904;2023-02-26T01:51:05;99400.09;;;-2.33;77.70
60489;BME280;46331;49.252;8.904;2023-02-26T01:53:21;99394.09;;;-2.25;77.96
60489;BME280;46331;49.252;8.904;2023-02-26T01:54:03;99402.72;;;-2.25;78.21
60489;BME280;46331;49.252;8.904;2023-02-26T01:54:44;99394.09;;;-2.25;78.14
60489;BME280;46331;49.252;8.904;2023-02-26T01:55:26;99400.09;;;-2.25;78.69
60489;BME280;46331;49.252;8.904;2023-02-26T01:56:17;99399.78;;;-2.22;79.00
60489;BME280;46331;49.252;8.904;2023-02-26T01:57:14;99400.59;;;-2.21;78.57
60489;BME280;46331;49.252;8.904;2023-02-26T01:57:59;99397.34;;;-2.23;78.28
60489;BME280;46331;49.252;8.904;2023-02-26T01:58:40;99404.78;;;-2.28;78.12
60489;BME280;46331;49.252;8.904;2023-02-26T01:59:21;99400.75;;;-2.23;78.51
60489;BME280;46331;49.252;8.904;2023-02-26T02:00:04;99404.97;;;-2.22;77.93
60489;BME280;46331;49.252;8.904;2023-02-26T02:00:52;99404.47;;;-2.25;77.44
60489;BME280;46331;49.252;8.904;2023-02-26T02:01:36;99398.47;;;-2.26;77.16
60489;BME280;46331;49.252;8.904;2023-02-26T02:02:21;99393.59;;;-2.29;77.44
60489;BME280;46331;49.252;8.904;2023-02-26T02:03:04;99391.16;;;-2.30;77.45
60489;BME280;46331;49.252;8.904;2023-02-26T02:03:45;99395.88;;;-2.34;77.66
60489;BME280;46331;49.252;8.904;2023-02-26T02:04:26;99391.16;;;-2.30;77.81
60489;BME280;46331;49.252;8.904;2023-02-26T02:05:23;99396.84;;;-2.27;77.58
60489;BME280;46331;49.252;8.904;2023-02-26T02:06:15;99391.16;;;-2.22;77.34
60489;BME280;46331;49.252;8.904;2023-02-26T02:06:56;99396.69;;;-2.17;77.38
60489;BME280;46331;49.252;8.904;2023-02-26T02:07:37;99397.50;;;-2.17;77.20
60489;BME280;46331;49.252;8.904;2023-02-26T02:08:19;99391.50;;;-2.17;76.78
60489;BME280;46331;49.252;8.904;2023-02-26T02:09:04;99393.44;;;-2.19;76.75
60489;BME280;46331;49.252;8.904;2023-02-26T02:09:45;99395.38;;;-2.21;76.84
60489;BME280;46331;49.252;8.904;2023-02-26T02:10:27;99394.09;;;-2.25;76.95
60489;BME280;46331;49.252;8.904;2023-02-26T02:11:10;99393.91;;;-2.24;77.21
60489;BME280;46331;49.252;8.904;2023-02-26T02:15:26;99398.78;;;-2.29;77.13
60489;BME280;46331;49.252;8.904;2023-02-26T02:16:20;99396.53;;;-2.32;77.45
60489;BME280;46331;49.252;8.904;2023-02-26T02:17:13;99398.31;;;-2.32;77.76
60489;BME280;46331;49.252;8.904;2023-02-26T02:18:07;99396.53;;;-2.32;77.56
60489;BME280;46331;49.252;8.904;2023-02-26T02:23:07;99390.03;;;-2.28;76.92
60489;BME280;46331;49.252;8.904;2023-02-26T02:23:21;99389.22;;;-2.28;76.80
60489;BME280;46331;49.252;8.904;2023-02-26T02:25:19;99397.16;;;-2.30;76.82
60489;BME280;46331;49.252;8.904;2023-02-26T02:28:49;99391.97;;;-2.30;76.84
60489;BME280;46331;49.252;8.904;2023-02-26T02:31:21;99408.06;;;-2.26;77.31
60489;BME280;46331;49.252;8.904;2023-02-26T02:32:12;99400.09;;;-2.25;77.27
60489;BME280;46331;49.252;8.904;2023-02-26T02:33:00;99406.25;;;-2.26;76.81
60489;BME280;46331;49.252;8.904;2023-02-26T02:33:59;99413.59;;;-2.29;76.58
60489;BME280;46331;49.252;8.904;2023-02-26T02:34:52;99404.31;;;-2.32;76.77
60489;BME280;46331;49.252;8.904;2023-02-26T02:35:50;99405.44;;;-2.35;77.25
60489;BME280;46331;49.252;8.904;2023-02-26T02:36:38;99410.31;;;-2.31;76.62
60489;BME280;46331;49.252;8.904;2023-02-26T02:38:22;99414.38;;;-2.29;76.82
60489;BME280;46331;49.252;8.904;2023-02-26T02:39:12;99415.34;;;-2.30;76.18
60489;BME280;46331;49.252;8.904;2023-02-26T02:40:07;99415.81;;;-2.35;75.99
60489;BME280;46331;49.252;8.904;2023-02-26T02:40:55;99414.53;;;-2.39;75.99
60489;BME280;46331;49.252;8.904;2023-02-26T02:43:03;99420.19;;;-2.52;75.77
60489;BME280;46331;49.252;8.904;2023-02-26T02:43:46;99424.91;;;-2.55;76.43
60489;BME280;46331;49.252;8.904;2023-02-26T02:44:33;99422.78;;;-2.60;76.36
60489;BME280;46331;49.252;8.904;2023-02-26T02:45:25;99423.91;;;-2.62;76.43
60489;BME280;46331;49.252;8.904;2023-02-26T02:46:10;99422.41;;;-2.65;76.87
60489;BME280;46331;49.252;8.904;2023-02-26T02:46:53;99416.59;;;-2.67;76.89
60489;BME280;46331;49.252;8.904;2023-02-26T02:47:37;99419.97;;;-2.66;77.61
60489;BME280;46331;49.252;8.904;2023-02-26T02:48:26;99434.13;;;-2.69;76.99
60489;BME280;46331;49.252;8.904;2023-02-26T02:49:19;99431.69;;;-2.71;77.43
60489;BME280;46331;49.252;8.904;2023-02-26T02:50:51;99424.69;;;-2.70;77.97
60489;BME280;46331;49.252;8.904;2023-02-26T02:51:38;99418.84;;;-2.72;77.46
60489;BME280;46331;49.252;8.904;2023-02-26T02:52:30;99431.00;;;-2.73;77.55
60489;BME280;46331;49.252;8.904;2023-02-26T02:53:17;99420.78;;;-2.74;77.61
60489;BME280;46331;49.252;8.904;2023-02-26T02:54:11;99422.72;;;-2.76;77.44
60489;BME280;46331;49.252;8.904;2023-02-26T02:55:06;99424.53;;;-2.77;77.58
60489;BME280;46331;49.252;8.904;2023-02-26T02:55:55;99421.25;;;-2.79;78.34
60489;BME280;46331;49.252;8.904;2023-02-26T02:56:42;99421.94;;;-2.77;78.08
60489;BME280;46331;49.252;8.904;2023-02-26T02:57:32;99429.88;;;-2.78;77.42
60489;BME280;46331;49.252;8.904;2023-02-26T02:58:22;99426.59;;;-2.80;77.98
60489;BME280;46331;49.252;8.904;2023-02-26T02:59:19;99431.78;;;-2.80;77.67
60489;BME280;46331;49.252;8.904;2023-02-26T03:00:05;99428.38;;;-2.81;78.19
60489;BME280;46331;49.252;8.904;2023-02-26T03:00:54;99428.56;;;-2.82;77.68
60489;BME280;46331;49.252;8.904;2023-02-26T03:01:37;99427.91;;;-2.84;77.87
60489;BME280;46331;49.252;8.904;2023-02-26T03:02:31;99424.47;;;-2.85;77.75
60489;BME280;46331;49.252;8.904;2023-02-26T03:04:08;99426.91;;;-2.83;78.43
60489;BME280;46331;49.252;8.904;2023-02-26T03:04:50;99429.34;;;-2.82;78.47
60489;BME280;46331;49.252;8.904;2023-02-26T03:05:31;99426.91;;;-2.83;78.28
60489;BME280;46331;49.252;8.904;2023-02-26T03:06:12;99429.34;;;-2.82;77.85
60489;BME280;46331;49.252;8.904;2023-02-26T03:06:53;99422.72;;;-2.84;77.65
60489;BME280;46331;49.252;8.904;2023-02-26T03:07:36;99427.91;;;-2.84;78.26
60489;BME280;46331;49.252;8.904;2023-02-26T03:08:23;99424.63;;;-2.87;78.02
60489;BME280;46331;49.252;8.904;2023-02-26T03:09:07;99431.94;;;-2.90;78.00
60489;BME280;46331;49.252;8.904;2023-02-26T03:09:49;99430.97;;;-2.89;78.20
60489;BME280;46331;49.252;8.904;2023-02-26T03:10:30;99431.28;;;-2.92;78.26
60489;BME280;46331;49.252;8.904;2023-02-26T03:11:14;99425.09;;;-2.91;77.88
60489;BME280;46331;49.252;8.904;2023-02-26T03:11:54;99428.84;;;-2.94;78.25
60489;BME280;46331;49.252;8.904;2023-02-26T03:12:35;99436.63;;;-2.94;78.15
60489;BME280;46331;49.252;8.904;2023-02-26T03:13:19;99433.34;;;-2.96;78.28
60489;BME280;46331;49.252;8.904;2023-02-26T03:14:03;99434.19;;;-2.95;78.88
60489;BME280;46331;49.252;8.904;2023-02-26T03:14:47;99439.38;;;-2.95;79.06
60489;BME280;46331;49.252;8.904;2023-02-26T03:17:28;99435.53;;;-2.83;79.10
60489;BME280;46331;49.252;8.904;2023-02-26T03:18:16;99436.34;;;-2.82;78.93
60489;BME280;46331;49.252;8.904;2023-02-26T03:21:03;99440.81;;;-2.93;78.06
60489;BME280;46331;49.252;8.904;2023-02-26T03:23:21;99448.09;;;-3.04;78.49
60489;BME280;46331;49.252;8.904;2023-02-26T03:24:12;99448.25;;;-3.06;78.50
60489;BME280;46331;49.252;8.904;2023-02-26T03:24:58;99448.56;;;-3.09;78.97
60489;BME280;46331;49.252;8.904;2023-02-26T03:26:02;99449.84;;;-3.13;78.42
60489;BME280;46331;49.252;8.904;2023-02-26T03:27:12;99457.91;;;-3.16;78.71
60489;BME280;46331;49.252;8.904;2023-02-26T03:29:00;99459.34;;;-3.22;78.66
60489;BME280;46331;49.252;8.904;2023-02-26T03:30:16;99461.28;;;-3.24;78.79
60489;BME280;46331;49.252;8.904;2023-02-26T03:31:20;99464.84;;;-3.25;78.58
60489;BME280;46331;49.252;8.904;2023-02-26T03:32:26;99457.38;;;-3.28;78.57
60489;BME280;46331;49.252;8.904;2023-02-26T03:34:01;99459.16;;;-3.29;78.76
60489;BME280;46331;49.252;8.904;2023-02-26T03:35:08;99462.41;;;-3.27;80.37
60489;BME280;46331;49.252;8.904;2023-02-26T03:37:51;99457.78;;;-3.15;80.25
60489;BME280;46331;49.252;8.904;2023-02-26T03:38:56;99457.63;;;-3.13;79.73
60489;BME280;46331;49.252;8.904;2023-02-26T03:39:52;99464.44;;;-3.12;81.37
60489;BME280;46331;49.252;8.904;2023-02-26T03:40:37;99460.38;;;-3.07;80.65
60489;BME280;46331;49.252;8.904;2023-02-26T03:41:35;99461.38;;;-3.08;80.47
60489;BME280;46331;49.252;8.904;2023-02-26T03:42:33;99464.78;;;-3.07;81.13
60489;BME280;46331;49.252;8.904;2023-02-26T03:43:22;99464.78;;;-3.07;81.13
60489;BME280;46331;49.252;8.904;2023-02-26T03:44:08;99471.75;;;-3.08;80.25
60489;BME280;46331;49.252;8.904;2023-02-26T03:44:55;99470.91;;;-3.08;80.68
60489;BME280;46331;49.252;8.904;2023-02-26T03:45:38;99481.75;;;-3.13;80.05
60489;BME280;46331;49.252;8.904;2023-02-26T03:46:27;99478.66;;;-3.16;80.02
60489;BME280;46331;49.252;8.904;2023-02-26T03:47:11;99480.94;;;-3.21;79.66
60489;BME280;46331;49.252;8.904;2023-02-26T03:47:54;99473.75;;;-3.28;79.28
60489;BME280;46331;49.252;8.904;2023-02-26T03:48:36;99477.63;;;-3.32;79.07
60489;BME280;46331;49.252;8.904;2023-02-26T03:49:28;99471.94;;;-3.35;79.60
60489;BME280;46331;49.252;8.904;2023-02-26T03:50:19;99481.94;;;-3.41;79.32
60489;BME280;46331;49.252;8.904;2023-02-26T03:51:11;99483.88;;;-3.43;79.71
60489;BME280;46331;49.252;8.904;2023-02-26T03:52:12;99479.78;;;-3.45;79.90
60489;BME280;46331;49.252;8.904;2023-02-26T03:53:06;99479.78;;;-3.45;80.58
60489;BME280;46331;49.252;8.904;2023-02-26T03:54:04;99472.16;;;-3.47;79.81
60489;BME280;46331;49.252;8.904;2023-02-26T03:55:04;99477.50;;;-3.48;79.72
60489;BME280;46331;49.252;8.904;2023-02-26T03:56:41;99482.34;;;-3.53;80.10
60489;BME280;46331;49.252;8.904;2023-02-26T03:57:52;99482.78;;;-3.58;79.75
60489;BME280;46331;49.252;8.904;2023-02-26T03:58:45;99479.69;;;-3.62;80.01
60489;BME280;46331;49.252;8.904;2023-02-26T03:59:51;99477.41;;;-3.65;79.67
60489;BME280;46331;49.252;8.904;2023-02-26T04:00:59;99480.31;;;-3.68;79.61
60489;BME280;46331;49.252;8.904;2023-02-26T04:02:06;99487.69;;;-3.73;80.38
60489;BME280;46331;49.252;8.904;2023-02-26T04:03:01;99478.31;;;-3.74;80.74
60489;BME280;46331;49.252;8.904;2023-02-26T04:03:59;99481.88;;;-3.75;80.69
60489;BME280;46331;49.252;8.904;2023-02-26T04:04:48;99484.44;;;-3.75;81.54
60489;BME280;46331;49.252;8.904;2023-02-26T04:05:34;99485.94;;;-3.72;81.69
60489;BME280;46331;49.252;8.904;2023-02-26T04:06:16;99485.09;;;-3.73;81.44
60489;BME280;46331;49.252;8.904;2023-02-26T04:06:59;99481.72;;;-3.73;81.40
60489;BME280;46331;49.252;8.904;2023-02-26T04:07:41;99486.91;;;-3.73;81.73
60489;BME280;46331;49.252;8.904;2023-02-26T04:08:22;99496.44;;;-3.74;81.55
60489;BME280;46331;49.252;8.904;2023-02-26T04:09:03;99493.19;;;-3.76;81.11
60489;BME280;46331;49.252;8.904;2023-02-26T04:09:49;99495.13;;;-3.78;81.65
60489;BME280;46331;49.252;8.904;2023-02-26T04:10:41;99499.66;;;-3.80;81.47
60489;BME280;46331;49.252;8.904;2023-02-26T04:11:23;99492.03;;;-3.82;81.53
60489;BME280;46331;49.252;8.904;2023-02-26T04:12:05;99495.72;;;-3.84;81.17
60489;BME280;46331;49.252;8.904;2023-02-26T04:12:46;99496.66;;;-3.85;81.42
60489;BME280;46331;49.252;8.904;2023-02-26T04:13:27;99491.78;;;-3.88;80.83
60489;BME280;46331;49.252;8.904;2023-02-26T04:14:08;99496.31;;;-3.90;80.60
60489;BME280;46331;49.252;8.904;2023-02-26T04:14:54;99498.25;;;-3.92;80.97
60489;BME280;46331;49.252;8.904;2023-02-26T04:15:34;99491.72;;;-3.97;81.39
60489;BME280;46331;49.252;8.904;2023-02-26T04:16:15;99496.91;;;-3.97;81.57
60489;BME280;46331;49.252;8.904;2023-02-26T04:16:56;99493.66;;;-3.99;82.03
60489;BME280;46331;49.252;8.904;2023-02-26T04:17:37;99495.56;;;-4.01;81.85
60489;BME280;46331;49.252;8.904;2023-02-26T04:18:17;99502.38;;;-4.00;81.86
60489;BME280;46331;49.252;8.904;2023-02-26T04:18:58;99505.13;;;-4.01;81.75
60489;BME280;46331;49.252;8.904;2023-02-26T04:19:38;99504.31;;;-4.02;82.64
60489;BME280;46331;49.252;8.904;2023-02-26T04:20:20;99499.13;;;-4.02;82.68
60489;BME280;46331;49.252;8.904;2023-02-26T04:21:01;99498.31;;;-4.02;82.81
60489;BME280;46331;49.252;8.904;2023-02-26T04:21:42;99498.31;;;-4.02;82.82
60489;BME280;46331;49.252;8.904;2023-02-26T04:22:22;99498.44;;;-4.04;82.71
60489;BME280;46331;49.252;8.904;2023-02-26T04:23:03;99495.06;;;-4.04;82.72
60489;BME280;46331;49.252;8.904;2023-02-26T04:23:44;99506.22;;;-4.04;82.99
60489;BME280;46331;49.252;8.904;2023-02-26T04:24:25;99507.22;;;-4.05;83.68
60489;BME280;46331;49.252;8.904;2023-02-26T04:25:07;99502.97;;;-4.06;82.77
60489;BME280;46331;49.252;8.904;2023-02-26T04:25:48;99499.72;;;-4.08;83.27
60489;BME280;46331;49.252;8.904;2023-02-26T04:26:30;99509.25;;;-4.08;82.44
60489;BME280;46331;49.252;8.904;2023-02-26T04:27:10;99505.84;;;-4.09;82.51
60489;BME280;46331;49.252;8.904;2023-02-26T04:27:51;99498.91;;;-4.08;82.92
60489;BME280;46331;49.252;8.904;2023-02-26T04:28:32;99505.84;;;-4.09;83.21
60489;BME280;46331;49.252;8.904;2023-02-26T04:29:14;99505.22;;;-4.11;82.95
60489;BME280;46331;49.252;8.904;2023-02-26T04:29:55;99507.78;;;-4.11;83.07
60489;BME280;46331;49.252;8.904;2023-02-26T04:30:36;99505.22;;;-4.11;82.75
60489;BME280;46331;49.252;8.904;2023-02-26T04:31:18;99497.72;;;-4.14;82.46
60489;BME280;46331;49.252;8.904;2023-02-26T04:31:58;99504.50;;;-4.13;82.76
60489;BME280;46331;49.252;8.904;2023-02-26T04:32:40;99507.09;;;-4.13;83.33
60489;BME280;46331;49.252;8.904;2023-02-26T04:33:22;99508.09;;;-4.14;83.40
60489;BME280;46331;49.252;8.904;2023-02-26T04:34:03;99512.28;;;-4.13;83.77
60489;BME280;46331;49.252;8.904;2023-02-26T04:34:43;99513.28;;;-4.14;83.35
60489;BME280;46331;49.252;8.904;2023-02-26T04:35:24;99509.84;;;-4.15;83.66
60489;BME280;46331;49.252;8.904;2023-02-26T04:36:04;99510.69;;;-4.14;83.79
60489;BME280;46331;49.252;8.904;2023-02-26T04:36:45;99508.88;;;-4.14;83.32
60489;BME280;46331;49.252;8.904;2023-02-26T04:37:26;99518.44;;;-4.14;83.55
60489;BME280;46331;49.252;8.904;2023-02-26T04:38:06;99514.22;;;-4.15;83.01
60489;BME280;46331;49.252;8.904;2023-02-26T04:38:47;99514.22;;;-4.15;83.31
60489;BME280;46331;49.252;8.904;2023-02-26T04:39:29;99511.13;;;-4.19;82.77
60489;BME280;46331;49.252;8.904;2023-02-26T04:40:10;99510.28;;;-4.19;83.05
60489;BME280;46331;49.252;8.904;2023-02-26T04:40:51;99514.00;;;-4.22;83.16
60489;BME280;46331;49.252;8.904;2023-02-26T04:41:32;99512.50;;;-4.24;83.35
60489;BME280;46331;49.252;8.904;2023-02-26T04:42:13;99520.28;;;-4.24;83.27
60489;BME280;46331;49.252;8.904;2023-02-26T04:42:53;99524.66;;;-4.25;83.43
60489;BME280;46331;49.252;8.904;2023-02-26T04:43:38;99524.94;;;-4.28;83.51
60489;BME280;46331;49.252;8.904;2023-02-26T04:44:39;99524.09;;;-4.28;83.46
60489;BME280;46331;49.252;8.904;2023-02-26T04:45:20;99519.06;;;-4.30;83.27
60489;BME280;46331;49.252;8.904;2023-02-26T04:46:01;99523.31;;;-4.29;83.74